Latest Weather Observations for Mortlake

IDV60801

Issued at 7:02 am EDT Monday 26 January 2015 (issued every 30 minutes, with the page automatically refreshed every 10 minutes)

About weather observations | Map of weather stations | Latest weather observations for VIC | Other Formats
Station Details ID: 090176 Name: MORTLAKE RACECOURSE Lat: -38.07 Lon: 142.77 Height: 130.0 m
Data from the previous 72 hours. | See also: Recent months at Mortlake
Date/Time
EDT
Temp
°C
App
Temp
°C
Dew
Point
Rel
Hum
%
Delta-T
°C
Wind Press
QNH
hPa
Press
MSL
hPa
Rain
since 9 am
mm
Dir
 
Spd
km/h
Gust
km/h
Spd
kts
Gust
kts
26/07:00am 8.5 7.0 8.4 99 0.0 WNW 6 7 3 4 1016.5 1016.2 0.2
26/06:30am 7.9 6.3 7.8 99 0.0 WNW 6 7 3 4 1016.0 1015.7 0.2
26/06:00am 7.9 6.2 7.5 97 0.2 WNW 6 6 3 3 1015.8 1015.5 0.2
26/05:30am 8.8 7.3 8.4 97 0.2 WNW 6 6 3 3 1015.3 1015.0 0.2
26/05:00am 9.4 7.8 8.8 96 0.3 WNW 7 7 4 4 1015.0 1014.7 0.2
26/04:30am 9.4 8.4 8.9 97 0.2 WNW 4 6 2 3 1014.8 1014.4 0.2
26/04:00am 9.3 8.3 8.7 96 0.3 W 4 6 2 3 1014.8 1014.4 0.2
26/03:30am 8.9 7.9 8.8 99 0.0 WNW 4 6 2 3 1014.9 1014.5 0.2
26/03:00am 8.9 7.9 8.8 99 0.0 WNW 4 6 2 3 1014.6 1014.2 0.2
26/02:30am 8.0 6.7 7.6 97 0.2 WNW 4 6 2 3 1014.6 1014.2 0.2
26/02:00am 8.7 7.2 8.3 97 0.2 W 6 6 3 3 1014.5 1014.1 0.2
26/01:30am 9.8 9.2 9.0 95 0.4 SW 2 4 1 2 1014.6 1014.2 0.2
26/01:00am 9.9 8.1 9.4 97 0.3 SSW 9 15 5 8 1014.8 1014.4 0.2
26/12:30am 7.4 5.9 6.8 96 0.3 WNW 4 6 2 3 1014.3 1013.9 0.2
26/12:00am 7.4 5.8 6.2 92 0.5 WNW 4 6 2 3 1014.2 1013.8 0.2
 
Date/Time
EDT
Temp
°C
App
Temp
°C
Dew
Point
Rel
Hum
%
Delta-T
°C
Wind Press
QNH
hPa
Press
MSL
hPa
Rain
since 9 am
mm
Dir
 
Spd
km/h
Gust
km/h
Spd
kts
Gust
kts
25/11:30pm 9.5 8.2 7.6 88 0.9 W 4 6 2 3 1014.4 1014.0 0.2
25/11:00pm 9.5 8.4 8.3 92 0.6 WSW 4 7 2 4 1014.3 1013.9 0.2
25/10:30pm 9.2 7.9 7.5 89 0.8 W 4 6 2 3 1014.3 1013.9 0.2
25/10:00pm 11.1 9.6 8.5 84 1.3 WSW 6 9 3 5 1014.0 1013.6 0.2
25/09:30pm 12.4 10.3 8.3 76 2.0 SW 9 17 5 9 1013.9 1013.5 0.2
25/09:00pm 12.2 9.6 7.7 74 2.2 SW 11 17 6 9 1013.3 1013.0 0.2
25/08:30pm 13.4 9.3 8.0 70 2.7 SW 19 28 10 15 1013.1 1012.8 0.2
25/08:00pm 13.8 9.2 6.7 62 3.5 SW 20 30 11 16 1012.8 1012.5 0.2
25/07:30pm 15.2 10.3 6.7 57 4.2 SW 22 33 12 18 1012.4 1012.1 0.2
25/07:00pm 14.8 10.1 7.8 63 3.5 SW 22 35 12 19 1012.3 1012.0 0.2
25/06:30pm 15.2 10.6 8.0 62 3.6 SW 22 35 12 19 1011.9 1011.6 0.2
25/06:00pm 15.8 11.6 7.3 57 4.2 WSW 19 28 10 15 1011.9 1011.6 0.2
25/05:30pm 16.0 9.9 6.7 54 4.6 WSW 28 43 15 23 1011.5 1011.2 0.2
25/05:12pm 16.2 10.0 6.1 51 4.9 SW 28 48 15 26 1011.4 1011.1 0.2
25/05:00pm 16.4 9.5 6.5 52 4.9 SW 32 46 17 25 1011.3 1011.0 0.2
25/04:30pm 14.2 9.7 10.0 76 2.2 WSW 24 46 13 25 1011.3 1011.0 0.2
25/04:01pm 17.8 11.4 8.4 54 4.9 WSW 32 50 17 27 1010.8 1010.5 0.2
25/04:00pm 17.5 10.9 7.8 53 5.0 WSW 32 48 17 26 1010.8 1010.5 0.2
25/03:56pm 18.0 12.1 7.4 50 5.4 WSW 28 48 15 26 1010.7 1010.4 0.2
25/03:30pm 16.6 10.1 6.4 51 5.0 WSW 30 48 16 26 1010.7 1010.4 0.2
25/03:00pm 17.7 11.5 8.0 53 5.0 WSW 30 46 16 25 1010.6 1010.3 0.2
25/02:51pm 17.3 11.1 7.9 54 4.8 WSW 30 48 16 26 1010.7 1010.4 0.2
25/02:30pm 15.8 10.1 8.5 62 3.7 WSW 28 41 15 22 1010.9 1010.6 0.2
25/02:03pm 16.4 9.8 8.6 60 4.0 WSW 33 52 18 28 1010.4 1010.1 0.2
25/02:00pm 16.2 9.8 8.7 61 3.9 WSW 32 46 17 25 1010.5 1010.2 0.2
25/01:40pm 17.4 11.2 8.0 54 4.8 WSW 30 54 16 29 1010.1 1009.8 0.2
25/01:30pm 16.8 10.5 7.2 53 4.8 WSW 30 44 16 24 1010.2 1009.9 0.2
25/01:04pm 16.5 10.6 7.4 55 4.6 W 28 46 15 25 1010.1 1009.8 0.2
25/01:00pm 17.7 11.7 7.2 50 5.3 W 28 43 15 23 1009.8 1009.5 0.2
25/12:30pm 14.4 7.7 7.5 63 3.4 W 32 48 17 26 1010.4 1010.1 0.2
25/12:11pm 14.5 8.6 7.3 62 3.6 WSW 28 48 15 26 1010.2 1009.9 0.2
25/12:00pm 15.7 10.1 7.2 57 4.2 W 26 37 14 20 1009.9 1009.6 0.2
25/11:30am 15.9 11.2 7.7 58 4.1 W 22 35 12 19 1009.6 1009.3 0.2
25/11:00am 16.3 11.0 8.3 59 4.1 WSW 26 41 14 22 1009.5 1009.2 0.2
25/10:30am 14.7 9.3 8.0 64 3.4 W 26 39 14 21 1009.3 1009.0 0.2
25/10:00am 15.9 12.0 9.3 65 3.4 W 20 30 11 16 1008.9 1008.6 0.0
25/09:30am 14.9 11.2 9.3 69 2.9 W 19 30 10 16 1008.5 1008.2 0.0
25/09:00am 13.7 9.9 9.0 73 2.4 W 19 28 10 15 1008.1 1007.7 2.0
25/08:30am 13.1 10.7 10.1 82 1.6 W 13 24 7 13 1007.8 1007.4 2.0
25/08:00am 12.1 10.1 10.2 88 1.0 W 11 17 6 9 1007.4 1007.0 2.0
25/07:30am 11.4 9.0 10.0 91 0.7 W 13 20 7 11 1007.1 1006.7 2.0
25/07:00am 10.6 8.6 10.1 97 0.3 WNW 11 15 6 8 1006.8 1006.4 2.0
25/06:30am 10.5 9.2 9.9 96 0.3 WNW 7 11 4 6 1006.4 1006.0 2.0
25/06:00am 11.4 9.9 10.6 95 0.4 W 9 15 5 8 1006.1 1005.7 2.0
25/05:30am 11.9 9.4 11.1 95 0.4 W 15 22 8 12 1005.6 1005.3 2.0
25/05:00am 12.1 10.0 11.3 95 0.4 W 13 19 7 10 1005.2 1004.9 2.0
25/04:30am 12.5 11.0 11.9 96 0.3 W 11 17 6 9 1005.3 1005.0 2.0
25/04:00am 12.8 11.8 12.3 97 0.3 W 9 17 5 9 1005.1 1004.8 2.0
25/03:30am 12.9 11.2 12.6 98 0.2 W 13 19 7 10 1005.1 1004.8 2.0
25/03:00am 12.7 10.9 12.2 97 0.3 WSW 13 19 7 10 1004.9 1004.6 2.0
25/02:30am 12.9 9.9 12.4 97 0.3 WSW 20 33 11 18 1004.8 1004.5 2.0
25/02:00am 13.5 10.8 12.9 96 0.3 W 19 24 10 13 1004.6 1004.3 1.4
25/01:30am 13.9 12.2 13.6 98 0.2 W 15 24 8 13 1004.6 1004.3 1.2
25/01:00am 15.0 12.5 14.0 94 0.6 WNW 20 32 11 17 1004.7 1004.4 0.0
25/12:30am 16.1 13.4 13.0 82 1.7 W 19 30 10 16 1004.5 1004.2 0.0
25/12:00am 15.8 14.9 10.8 72 2.7 WNW 6 7 3 4 1004.4 1004.1 0.0
 
Date/Time
EDT
Temp
°C
App
Temp
°C
Dew
Point
Rel
Hum
%
Delta-T
°C
Wind Press
QNH
hPa
Press
MSL
hPa
Rain
since 9 am
mm
Dir
 
Spd
km/h
Gust
km/h
Spd
kts
Gust
kts
24/11:30pm 15.4 14.1 10.0 70 2.8 NW 7 9 4 5 1004.4 1004.1 0.0
24/11:00pm 16.9 15.3 10.1 64 3.6 NW 9 13 5 7 1004.4 1004.1 0.0
24/10:30pm 18.0 14.8 10.1 60 4.2 WNW 17 22 9 12 1004.4 1004.1 0.0
24/10:00pm 18.9 16.1 9.9 56 4.8 WNW 15 20 8 11 1004.1 1003.8 0.0
24/09:30pm 19.7 17.2 9.6 52 5.4 WNW 13 19 7 10 1003.5 1003.2 0.0
24/09:00pm 20.2 18.0 9.5 50 5.8 WNW 11 19 6 10 1003.0 1002.7 0.0
24/08:30pm 21.6 18.4 10.1 48 6.3 W 17 26 9 14 1002.8 1002.5 0.0
24/08:00pm 21.6 21.0 12.2 55 5.3 S 7 11 4 6 1002.6 1002.3 0.0
24/07:30pm 22.1 21.1 12.4 54 5.5 S 9 15 5 8 1002.3 1002.0 0.0
24/07:00pm 22.4 21.2 12.9 55 5.5 SSW 11 17 6 9 1002.2 1001.9 0.0
24/06:30pm 22.3 19.8 13.4 57 5.2 S 19 26 10 14 1002.1 1001.8 0.0
24/06:00pm 22.7 20.6 13.7 56 5.3 SSW 17 24 9 13 1002.3 1002.0 0.0
24/05:30pm 22.8 19.4 13.8 57 5.3 SSW 24 33 13 18 1002.6 1002.3 0.0
24/05:00pm 23.6 19.7 13.2 52 6.1 SSW 26 39 14 21 1002.6 1002.3 0.0
24/04:30pm 24.7 21.1 12.0 45 7.3 W 22 33 12 18 1002.7 1002.4 0.0
24/04:00pm 25.5 22.1 10.5 39 8.4 W 19 33 10 18 1002.9 1002.6 0.0
24/03:30pm 25.8 22.2 10.4 38 8.6 WNW 20 28 11 15 1003.1 1002.8 0.0
24/03:00pm 24.2 20.5 9.4 39 8.1 WNW 19 32 10 17 1003.6 1003.3 0.0
24/02:30pm 24.2 20.8 9.0 38 8.2 NW 17 30 9 16 1004.1 1003.8 0.0
24/02:00pm 24.3 20.8 10.2 41 7.8 WNW 19 33 10 18 1004.4 1004.1 0.0
24/01:30pm 23.1 20.2 9.5 42 7.4 WNW 15 28 8 15 1004.7 1004.4 0.0
24/01:00pm 22.7 19.3 10.5 46 6.8 W 19 30 10 16 1005.1 1004.8 0.0
24/12:30pm 21.6 19.7 10.4 49 6.1 W 11 22 6 12 1005.4 1005.1 0.0
24/12:00pm 21.0 18.6 10.2 50 5.9 WSW 13 22 7 12 1005.7 1005.4 0.0
24/11:30am 19.8 17.4 10.2 54 5.2 W 13 24 7 13 1006.2 1005.8 0.0
24/11:00am 18.7 16.0 10.3 58 4.5 W 15 24 8 13 1006.4 1006.0 0.0
24/10:30am 18.5 16.7 10.8 61 4.2 W 11 20 6 11 1006.5 1006.1 0.0
24/10:00am 18.2 17.6 12.2 68 3.4 NW 7 13 4 7 1006.6 1006.2 0.0
24/09:30am 16.8 15.8 12.3 75 2.5 NW 9 13 5 7 1006.7 1006.3 0.0
24/09:00am 15.3 15.0 12.6 84 1.5 WNW 6 7 3 4 1006.8 1006.4 0.0
24/08:30am 15.0 14.6 13.0 88 1.1 SW 7 9 4 5 1006.9 1006.5 0.0
24/08:00am 14.0 14.2 12.9 93 0.6 ESE 4 6 2 3 1006.7 1006.3 0.0
24/07:30am 13.2 13.7 12.7 97 0.3 ESE 2 4 1 2 1006.8 1006.4 0.0
24/07:00am 12.9 12.9 12.4 97 0.3 ESE 4 6 2 3 1006.5 1006.1 0.0
24/06:30am 12.7 12.6 12.2 97 0.3 ESE 4 4 2 2 1006.3 1005.9 0.0
24/06:00am 12.7 12.6 12.2 97 0.3 ESE 4 4 2 2 1006.4 1006.0 0.0
24/05:30am 12.0 11.4 11.8 99 0.1 ESE 6 6 3 3 1006.2 1005.8 0.0
24/05:00am 11.4 11.6 10.5 94 0.5 CALM 0 0 0 0 1006.1 1005.7 0.0
24/04:30am 12.7 13.1 11.3 91 0.7 CALM 0 0 0 0 1006.2 1005.8 0.0
24/04:00am 13.2 13.8 11.9 92 0.7 CALM 0 4 0 2 1006.3 1005.9 0.0
24/03:30am 13.4 14.1 12.3 93 0.6 CALM 0 2 0 1 1006.6 1006.2 0.0
24/03:00am 13.5 14.2 12.2 92 0.7 CALM 0 0 0 0 1006.9 1006.5 0.0
24/02:30am 13.4 14.1 12.1 92 0.7 CALM 0 2 0 1 1007.3 1006.9 0.0
24/02:00am 13.2 13.1 12.1 93 0.6 SE 4 4 2 2 1007.6 1007.2 0.0
24/01:30am 13.0 13.3 12.2 95 0.4 SE 2 2 1 1 1007.9 1007.5 0.0
24/01:00am 11.8 11.3 10.9 94 0.5 SE 4 6 2 3 1008.2 1007.8 0.0
24/12:30am 11.9 10.8 10.8 93 0.6 ESE 7 9 4 5 1008.4 1008.1 0.0
24/12:00am 12.5 11.4 10.7 89 0.9 SE 7 11 4 6 1008.7 1008.4 0.0
 
Date/Time
EDT
Temp
°C
App
Temp
°C
Dew
Point
Rel
Hum
%
Delta-T
°C
Wind Press
QNH
hPa
Press
MSL
hPa
Rain
since 9 am
mm
Dir
 
Spd
km/h
Gust
km/h
Spd
kts
Gust
kts
23/11:30pm 14.1 14.0 12.0 87 1.1 SSE 4 6 2 3 1009.1 1008.8 0.0
23/11:00pm 14.5 14.0 12.2 86 1.3 SSE 6 7 3 4 1009.1 1008.8 0.0
23/10:30pm 15.0 14.5 12.1 83 1.6 SSE 6 9 3 5 1009.2 1008.9 0.0
23/10:00pm 14.9 14.2 12.0 83 1.6 SSE 7 9 4 5 1009.0 1008.7 0.0
23/09:30pm 15.7 14.3 12.1 79 2.0 S 11 17 6 9 1008.8 1008.5 0.0
23/09:00pm 16.4 14.1 11.8 74 2.5 S 15 20 8 11 1008.6 1008.3 0.0
23/08:30pm 16.8 13.8 11.9 73 2.7 S 19 24 10 13 1008.4 1008.1 0.0
23/08:00pm 17.4 14.4 12.1 71 2.9 S 19 24 10 13 1008.6 1008.3 0.0
23/07:30pm 18.4 15.4 11.9 66 3.6 SSW 19 24 10 13 1008.4 1008.1 0.0
23/07:00pm 19.3 15.8 12.1 63 4.0 SSW 22 32 12 17 1008.1 1007.7 0.0
23/06:30pm 19.8 16.0 12.3 62 4.2 SSW 24 33 13 18 1008.0 1007.6 0.0
23/06:00pm 20.7 17.4 12.9 61 4.5 SW 22 33 12 18 1007.9 1007.5 0.0
23/05:30pm 20.0 16.2 12.5 62 4.2 SSW 24 35 13 19 1007.8 1007.4 0.0
23/05:00pm 21.2 17.8 12.6 58 4.9 S 22 32 12 17 1007.7 1007.3 0.0
23/04:30pm 20.3 16.1 11.0 55 5.1 S 24 33 13 18 1007.9 1007.5 0.0
23/04:00pm 21.9 18.5 11.3 51 5.9 SW 20 33 11 18 1007.8 1007.4 0.0
23/03:30pm 22.2 19.3 12.2 53 5.7 S 19 32 10 17 1007.8 1007.4 0.0
23/03:00pm 21.7 18.2 10.8 50 6.0 SSW 20 32 11 17 1007.9 1007.5 0.0
23/02:30pm 21.1 17.6 10.3 50 5.9 SSW 19 28 10 15 1007.9 1007.5 0.0
23/02:00pm 22.1 18.9 11.2 50 6.1 SSW 19 30 10 16 1007.9 1007.5 0.0
23/01:30pm 21.8 18.7 11.5 52 5.8 SW 19 28 10 15 1008.0 1007.6 0.0
23/01:00pm 20.3 17.1 11.8 58 4.8 WSW 20 35 11 19 1008.1 1007.7 0.0
23/12:30pm 19.2 16.7 13.6 70 3.2 SW 19 28 10 15 1008.2 1007.8 0.0
23/12:00pm 18.4 16.0 14.3 77 2.4 SW 20 26 11 14 1008.5 1008.2 0.0
23/11:30am 16.3 14.4 15.2 93 0.6 SW 19 28 10 15 1008.9 1008.6 0.0
23/11:00am 17.3 14.9 14.4 83 1.7 WSW 20 28 11 15 1008.4 1008.1 0.0
23/10:30am 17.8 15.6 14.9 83 1.7 WSW 20 28 11 15 1008.1 1007.7 0.0
23/10:00am 18.7 17.3 14.6 77 2.4 W 15 24 8 13 1007.9 1007.5 0.0
23/09:30am 16.9 15.7 16.1 95 0.5 WSW 17 24 9 13 1007.7 1007.3 0.0
23/09:00am 17.9 16.1 15.5 86 1.4 WSW 19 26 10 14 1007.5 1007.1 0.0
23/08:30am 16.8 15.3 14.3 85 1.4 WSW 15 22 8 12 1007.2 1006.8 0.0
23/08:00am 16.6 15.8 12.8 78 2.1 WSW 9 15 5 8 1006.7 1006.3 0.0
23/07:30am 15.4 14.9 12.0 80 1.9 W 6 9 3 5 1006.1 1005.7 0.0

Other Formats:

Comma delimited format used in spreadsheet applications
http://www.bom.gov.au/fwo/IDV60801/IDV60801.94840.axf

JavaScript Object Notation format (JSON) in row-major order
http://www.bom.gov.au/fwo/IDV60801/IDV60801.94840.json